createdAt,value
2019-03-28T00:01:14.838Z,67.42
2019-03-28T00:03:43.230Z,67.49
2019-03-28T00:06:11.823Z,67.57
2019-03-28T00:08:40.209Z,67.47
2019-03-28T00:11:08.950Z,67.54
2019-03-28T00:13:38.082Z,67.54
2019-03-28T00:16:06.576Z,67.64
2019-03-28T00:18:35.032Z,67.60
2019-03-28T00:21:03.682Z,67.72
2019-03-28T00:23:33.715Z,67.63
2019-03-28T00:26:02.105Z,68.24
2019-03-28T00:28:30.645Z,68.31
2019-03-28T00:30:59.273Z,68.45
2019-03-28T00:33:27.671Z,68.45
2019-03-28T00:35:56.091Z,68.96
2019-03-28T00:38:25.142Z,69.41
2019-03-28T00:40:53.848Z,69.41
2019-03-28T00:43:22.263Z,68.88
2019-03-28T00:45:51.002Z,68.94
2019-03-28T00:48:19.390Z,68.92
2019-03-28T00:50:47.827Z,68.69
2019-03-28T00:53:16.259Z,68.69
2019-03-28T00:55:44.922Z,69.04
2019-03-28T00:58:13.610Z,69.04
2019-03-28T01:00:42.102Z,68.98
2019-03-28T01:03:11.232Z,68.89
2019-03-28T01:05:39.578Z,68.98
2019-03-28T01:08:07.969Z,69.04
2019-03-28T01:10:36.375Z,68.96
2019-03-28T01:13:04.781Z,69.10
2019-03-28T01:15:33.254Z,69.10
2019-03-28T01:18:01.970Z,68.93
2019-03-28T01:20:30.359Z,68.82
2019-03-28T01:22:58.770Z,68.82
2019-03-28T01:25:27.531Z,68.30
2019-03-28T01:27:56.233Z,68.30
2019-03-28T01:30:24.890Z,68.28
2019-03-28T01:32:53.475Z,68.58
2019-03-28T01:35:21.974Z,68.16
2019-03-28T01:37:50.385Z,69.01
2019-03-28T01:40:19.128Z,69.01
2019-03-28T01:42:47.524Z,68.98
2019-03-28T01:45:16.019Z,69.22
2019-03-28T01:47:44.603Z,69.42
2019-03-28T01:50:13.461Z,69.37
2019-03-28T01:52:41.852Z,69.37
2019-03-28T01:55:10.830Z,69.57
2019-03-28T01:57:39.487Z,69.62
2019-03-28T02:00:10.332Z,69.57
2019-03-28T02:02:38.721Z,69.32
2019-03-28T02:05:08.239Z,69.00
2019-03-28T02:07:36.921Z,69.35
2019-03-28T02:10:06.306Z,69.95
2019-03-28T02:12:34.715Z,70.20
2019-03-28T02:15:04.299Z,69.68
2019-03-28T02:17:32.780Z,69.68
2019-03-28T02:20:01.179Z,69.21
2019-03-28T02:22:29.571Z,68.96
2019-03-28T02:24:58.245Z,68.99
2019-03-28T02:27:26.932Z,69.08
2019-03-28T02:29:55.354Z,69.15
2019-03-28T02:32:23.746Z,69.35
2019-03-28T02:34:52.309Z,69.35
2019-03-28T02:37:20.722Z,69.24
2019-03-28T02:39:49.156Z,68.89
2019-03-28T02:42:17.580Z,69.60
2019-03-28T02:44:46.234Z,69.60
2019-03-28T02:47:14.654Z,69.05
2019-03-28T02:49:43.357Z,69.04
2019-03-28T02:52:11.920Z,69.28
2019-03-28T02:54:40.318Z,69.27
2019-03-28T02:57:08.711Z,69.57
2019-03-28T02:59:37.121Z,69.57
2019-03-28T03:02:06.703Z,69.66
2019-03-28T03:04:35.789Z,69.65
2019-03-28T03:07:04.191Z,69.65
2019-03-28T03:09:32.574Z,69.58
2019-03-28T03:12:01.548Z,69.51
2019-03-28T03:14:30.049Z,69.50
2019-03-28T03:16:58.911Z,69.49
2019-03-28T03:19:27.596Z,69.24
2019-03-28T03:21:56.282Z,68.85
2019-03-28T03:24:24.677Z,68.75
2019-03-28T03:26:53.478Z,68.57
2019-03-28T03:29:21.906Z,68.79
2019-03-28T03:31:50.402Z,68.79
2019-03-28T03:34:18.943Z,68.23
2019-03-28T03:36:47.348Z,68.01
2019-03-28T03:39:15.837Z,67.90
2019-03-28T03:41:45.087Z,67.69
2019-03-28T03:44:13.448Z,68.01
2019-03-28T03:46:41.842Z,68.22
2019-03-28T03:49:10.328Z,68.22
2019-03-28T03:51:38.717Z,67.86
2019-03-28T03:54:07.383Z,67.86
2019-03-28T03:56:36.694Z,68.24
2019-03-28T03:59:05.349Z,68.24
2019-03-28T04:01:33.766Z,68.71
2019-03-28T04:04:02.300Z,68.75
2019-03-28T04:06:30.999Z,68.75
2019-03-28T04:08:59.412Z,68.78
2019-03-28T04:11:27.990Z,68.63
2019-03-28T04:13:56.398Z,68.63
2019-03-28T04:16:24.789Z,68.78
2019-03-28T04:18:53.202Z,68.78
2019-03-28T04:21:21.657Z,69.10
2019-03-28T04:23:50.366Z,69.10
2019-03-28T04:26:18.884Z,69.10
2019-03-28T04:28:47.564Z,69.41
2019-03-28T04:31:15.955Z,69.41
2019-03-28T04:33:44.599Z,69.54
2019-03-28T04:36:13.014Z,69.73
2019-03-28T04:38:41.399Z,69.85
2019-03-28T04:41:09.791Z,70.00
2019-03-28T04:43:38.208Z,70.00
2019-03-28T04:46:06.666Z,69.80
2019-03-28T04:48:35.218Z,69.56
2019-03-28T04:51:03.846Z,69.68
2019-03-28T04:53:32.233Z,69.68
2019-03-28T04:56:00.611Z,69.71
2019-03-28T04:58:29.024Z,69.56
2019-03-28T05:00:57.410Z,68.92
2019-03-28T05:03:25.800Z,68.70
2019-03-28T05:05:54.196Z,68.48
2019-03-28T05:08:22.625Z,68.46
2019-03-28T05:10:51.304Z,68.46
2019-03-28T05:13:20.351Z,68.78
2019-03-28T05:15:48.890Z,68.99
2019-03-28T05:18:17.273Z,68.46
2019-03-28T05:20:45.660Z,68.53
2019-03-28T05:23:14.361Z,68.53
2019-03-28T05:25:42.843Z,69.01
2019-03-28T05:28:11.232Z,68.97
2019-03-28T05:30:39.876Z,69.16
2019-03-28T05:33:08.487Z,69.16
2019-03-28T05:35:36.909Z,69.13
2019-03-28T05:38:05.286Z,68.80
2019-03-28T05:40:33.693Z,68.80
2019-03-28T05:43:02.402Z,68.85
2019-03-28T05:45:30.764Z,68.85
2019-03-28T05:48:00.430Z,68.61
2019-03-28T05:50:28.855Z,68.37
2019-03-28T05:52:57.545Z,68.39
2019-03-28T05:55:25.952Z,68.33
2019-03-28T05:57:54.599Z,68.39
2019-03-28T06:00:22.998Z,68.42
2019-03-28T06:02:51.399Z,68.32
2019-03-28T06:05:19.774Z,68.50
2019-03-28T06:07:48.171Z,68.50
2019-03-28T06:10:17.013Z,68.82
2019-03-28T06:12:45.833Z,68.82
2019-03-28T06:15:14.289Z,68.23
2019-03-28T06:17:42.679Z,68.24
2019-03-28T06:20:11.426Z,68.00
2019-03-28T06:22:39.880Z,68.00
2019-03-28T06:25:08.945Z,68.53
2019-03-28T06:27:37.338Z,68.06
2019-03-28T06:30:08.176Z,68.06
2019-03-28T06:32:42.983Z,67.99
2019-03-28T06:35:07.389Z,67.99
2019-03-28T06:37:35.848Z,67.54
2019-03-28T06:40:05.624Z,67.28
2019-03-28T06:42:34.144Z,67.28
2019-03-28T06:45:03.967Z,67.95
2019-03-28T06:47:32.521Z,68.55
2019-03-28T06:50:00.907Z,68.55
2019-03-28T06:52:29.391Z,68.76
2019-03-28T06:54:57.889Z,68.76
2019-03-28T06:57:26.360Z,68.67
2019-03-28T06:59:55.136Z,68.55
2019-03-28T07:02:23.534Z,68.88
2019-03-28T07:04:51.942Z,68.88
2019-03-28T07:07:20.326Z,68.80
2019-03-28T07:09:49.017Z,68.35
2019-03-28T07:12:18.402Z,68.25
2019-03-28T07:14:47.066Z,68.25
2019-03-28T07:17:16.042Z,67.88
2019-03-28T07:19:44.734Z,67.97
2019-03-28T07:22:13.407Z,67.97
2019-03-28T07:24:42.101Z,67.42
2019-03-28T07:27:10.494Z,67.42
2019-03-28T07:29:50.267Z,67.29
2019-03-28T07:32:09.502Z,67.32
2019-03-28T07:34:38.169Z,67.32
2019-03-28T07:37:07.163Z,67.08
2019-03-28T07:39:36.268Z,66.96
2019-03-28T07:42:04.707Z,66.85
2019-03-28T07:44:33.361Z,66.44
2019-03-28T07:47:01.739Z,66.44
2019-03-28T07:49:30.432Z,65.55
2019-03-28T07:51:58.836Z,65.21
2019-03-28T07:54:27.466Z,64.66
2019-03-28T07:56:55.851Z,64.12
2019-03-28T07:59:24.519Z,63.94
2019-03-28T08:01:52.921Z,63.94
2019-03-28T08:04:21.696Z,63.07
2019-03-28T08:06:51.296Z,63.38
2019-03-28T08:09:20.500Z,63.44
2019-03-28T08:11:49.802Z,63.42
2019-03-28T08:14:18.421Z,62.80
2019-03-28T08:16:46.821Z,62.80
2019-03-28T08:19:15.216Z,62.51
2019-03-28T08:21:43.936Z,62.42
2019-03-28T08:24:12.331Z,62.10
2019-03-28T08:26:41.092Z,61.29
2019-03-28T08:29:09.495Z,61.56
2019-03-28T08:31:40.876Z,61.38
2019-03-28T08:34:09.628Z,61.29
2019-03-28T08:36:39.371Z,61.29
2019-03-28T08:39:08.216Z,61.09
2019-03-28T08:41:37.003Z,61.09
2019-03-28T08:44:07.304Z,61.01
2019-03-28T08:46:35.805Z,60.64
2019-03-28T08:49:04.280Z,60.97
2019-03-28T08:51:32.682Z,60.93
2019-03-28T08:54:01.080Z,60.42
2019-03-28T08:56:29.474Z,60.64
2019-03-28T08:58:57.925Z,59.92
2019-03-28T09:01:27.478Z,59.93
2019-03-28T09:03:55.868Z,59.30
2019-03-28T09:06:24.244Z,59.34
2019-03-28T09:08:52.647Z,59.29
2019-03-28T09:11:21.682Z,58.99
2019-03-28T09:13:50.309Z,59.53
2019-03-28T09:16:18.712Z,59.51
2019-03-28T09:18:47.505Z,59.24
2019-03-28T09:21:16.112Z,58.69
2019-03-28T09:23:44.526Z,58.69
2019-03-28T09:26:13.041Z,58.99
2019-03-28T09:28:41.427Z,59.11
2019-03-28T09:31:19.700Z,59.39
2019-03-28T09:33:40.938Z,58.83
2019-03-28T09:36:09.735Z,58.96
2019-03-28T09:38:38.125Z,58.93
2019-03-28T09:41:06.587Z,58.93
2019-03-28T09:43:35.021Z,58.88
2019-03-28T09:46:03.360Z,58.48
2019-03-28T09:48:31.767Z,58.88
2019-03-28T09:51:00.456Z,58.76
2019-03-28T09:53:29.021Z,58.52
2019-03-28T09:55:57.472Z,58.56
2019-03-28T09:58:25.876Z,58.39
2019-03-28T10:01:02.845Z,57.28
2019-03-28T10:03:24.924Z,57.80
2019-03-28T10:05:53.771Z,57.63
2019-03-28T10:08:22.156Z,58.02
2019-03-28T10:10:50.542Z,57.56
2019-03-28T10:13:19.202Z,57.53
2019-03-28T10:15:47.892Z,56.96
2019-03-28T10:18:16.575Z,56.88
2019-03-28T10:20:44.968Z,56.91
2019-03-28T10:23:13.648Z,56.04
2019-03-28T10:25:42.328Z,55.65
2019-03-28T10:28:11.018Z,56.54
2019-03-28T10:30:40.997Z,56.39
2019-03-28T10:33:09.441Z,55.84
2019-03-28T10:35:37.910Z,55.96
2019-03-28T10:38:06.684Z,55.18
2019-03-28T10:40:36.414Z,54.40
2019-03-28T10:43:05.139Z,55.16
2019-03-28T10:45:33.889Z,54.81
2019-03-28T10:48:02.626Z,54.52
2019-03-28T10:50:40.732Z,53.84
2019-03-28T10:53:01.258Z,54.40
2019-03-28T10:55:29.753Z,54.38
2019-03-28T10:57:58.584Z,54.44
2019-03-28T11:00:26.925Z,55.24
2019-03-28T11:02:55.381Z,53.80
2019-03-28T11:05:24.486Z,52.94
2019-03-28T11:07:52.892Z,53.64
2019-03-28T11:10:21.274Z,52.70
2019-03-28T11:12:50.028Z,51.95
2019-03-28T11:15:18.823Z,51.30
2019-03-28T11:17:47.636Z,52.16
2019-03-28T11:20:16.251Z,51.79
2019-03-28T11:22:44.639Z,49.97
2019-03-28T11:25:13.456Z,49.03
2019-03-28T11:27:41.845Z,49.42
2019-03-28T11:30:11.033Z,48.05
2019-03-28T11:32:39.413Z,48.63
2019-03-28T11:35:08.238Z,48.40
2019-03-28T11:37:37.198Z,48.30
2019-03-28T11:40:09.592Z,47.60
2019-03-28T11:42:38.367Z,46.50
2019-03-28T11:45:09.531Z,44.64
2019-03-28T11:47:38.364Z,44.67
2019-03-28T11:50:11.659Z,44.49
2019-03-28T11:52:42.552Z,44.83
2019-03-28T11:55:10.698Z,43.18
2019-03-28T11:57:39.112Z,43.52
2019-03-28T12:00:11.964Z,41.45
2019-03-28T12:02:40.446Z,43.45
2019-03-28T12:05:09.788Z,43.21
2019-03-28T12:07:38.744Z,45.07
2019-03-28T12:10:10.502Z,46.84
2019-03-28T12:12:38.979Z,46.89
2019-03-28T12:15:09.408Z,47.14
2019-03-28T12:17:37.787Z,46.89
2019-03-28T12:20:10.785Z,46.04
2019-03-28T12:22:39.398Z,44.89
2019-03-28T12:25:08.219Z,45.19
2019-03-28T12:27:36.626Z,46.09
2019-03-28T12:30:08.450Z,47.41
2019-03-28T12:32:37.049Z,47.55
2019-03-28T12:35:07.107Z,47.81
2019-03-28T12:37:36.712Z,45.35
2019-03-28T12:40:09.074Z,45.33
2019-03-28T12:42:37.932Z,45.97
2019-03-28T12:45:11.710Z,45.65
2019-03-28T12:47:42.645Z,45.43
2019-03-28T12:50:12.514Z,46.53
2019-03-28T12:52:40.940Z,47.29
2019-03-28T12:55:10.005Z,47.13
2019-03-28T12:57:38.387Z,47.61
2019-03-28T13:00:10.178Z,47.75
2019-03-28T13:02:39.437Z,47.06
2019-03-28T13:05:08.772Z,47.28
2019-03-28T13:07:37.151Z,46.83
2019-03-28T13:10:08.870Z,46.24
2019-03-28T13:12:37.798Z,46.65
2019-03-28T13:15:07.350Z,45.94
2019-03-28T13:17:36.052Z,44.99
2019-03-28T13:20:07.272Z,45.61
2019-03-28T13:22:36.613Z,45.16
2019-03-28T13:25:07.416Z,45.82
2019-03-28T13:27:36.763Z,45.62
2019-03-28T13:30:11.458Z,45.50
2019-03-28T13:32:42.183Z,44.32
2019-03-28T13:35:10.784Z,45.49
2019-03-28T13:37:39.176Z,42.74
2019-03-28T13:40:08.617Z,42.38
2019-03-28T13:42:38.776Z,42.32
2019-03-28T13:45:09.675Z,41.79
2019-03-28T13:47:38.415Z,41.51
2019-03-28T13:50:11.441Z,43.16
2019-03-28T13:52:39.932Z,42.11
2019-03-28T13:55:09.176Z,41.98
2019-03-28T13:57:37.681Z,43.55
2019-03-28T14:00:11.267Z,42.81
2019-03-28T14:02:40.102Z,43.24
2019-03-28T14:05:09.190Z,44.30
2019-03-28T14:07:37.657Z,44.65
2019-03-28T14:10:07.845Z,44.56
2019-03-28T14:12:36.315Z,45.30
2019-03-28T14:15:06.445Z,45.95
2019-03-28T14:17:35.199Z,46.51
2019-03-28T14:20:04.964Z,47.04
2019-03-28T14:22:33.432Z,47.52
2019-03-28T14:25:02.122Z,47.57
2019-03-28T14:27:30.592Z,47.54
2019-03-28T14:29:58.987Z,47.39
2019-03-28T14:32:36.973Z,48.06
2019-03-28T14:35:07.105Z,48.48
2019-03-28T14:37:35.484Z,48.03
2019-03-28T14:40:05.855Z,48.44
2019-03-28T14:42:34.260Z,48.55
2019-03-28T14:45:02.919Z,48.54
2019-03-28T14:47:36.333Z,48.96
2019-03-28T14:50:08.327Z,48.84
2019-03-28T14:52:36.780Z,48.68
2019-03-28T14:55:06.776Z,48.25
2019-03-28T14:57:35.925Z,47.77
2019-03-28T15:00:24.581Z,47.68
2019-03-28T15:02:55.827Z,46.72
2019-03-28T15:05:24.212Z,46.83
2019-03-28T15:07:53.151Z,47.58
2019-03-28T15:10:21.564Z,46.54
2019-03-28T15:12:49.981Z,46.32
2019-03-28T15:15:18.649Z,46.26
2019-03-28T15:17:47.340Z,45.92
2019-03-28T15:20:18.634Z,46.46
2019-03-28T15:22:47.006Z,46.70
2019-03-28T15:25:17.269Z,46.97
2019-03-28T15:27:45.674Z,46.76
2019-03-28T15:30:14.518Z,46.97
2019-03-28T15:32:43.350Z,46.90
2019-03-28T15:35:11.748Z,46.85
2019-03-28T15:37:40.139Z,46.05
2019-03-28T15:40:09.475Z,46.97
2019-03-28T15:42:37.868Z,47.38
2019-03-28T15:45:09.440Z,47.44
2019-03-28T15:47:37.839Z,47.26
2019-03-28T15:50:06.979Z,46.96
2019-03-28T15:52:35.532Z,47.35
2019-03-28T15:55:05.111Z,47.01
2019-03-28T15:57:36.946Z,47.13
2019-03-28T16:00:07.285Z,47.61
2019-03-28T16:02:35.693Z,47.48
2019-03-28T16:05:06.166Z,47.67
2019-03-28T16:07:34.695Z,47.74
2019-03-28T16:10:04.804Z,48.07
2019-03-28T16:12:33.281Z,48.28
2019-03-28T16:15:02.056Z,48.47
2019-03-28T16:17:30.493Z,48.86
2019-03-28T16:19:58.907Z,48.60
2019-03-28T16:22:27.308Z,48.61
2019-03-28T16:24:55.781Z,48.79
2019-03-28T16:27:29.426Z,48.18
2019-03-28T16:29:58.029Z,48.57
2019-03-28T16:32:26.475Z,48.78
2019-03-28T16:34:55.063Z,48.99
2019-03-28T16:37:23.509Z,48.43
2019-03-28T16:39:53.341Z,48.17
2019-03-28T16:42:21.725Z,48.40
2019-03-28T16:44:50.230Z,49.02
2019-03-28T16:47:18.700Z,48.78
2019-03-28T16:49:47.235Z,48.90
2019-03-28T16:52:15.668Z,49.47
2019-03-28T16:54:44.131Z,49.80
2019-03-28T16:57:12.739Z,49.43
2019-03-28T16:59:41.130Z,49.27
2019-03-28T17:02:09.758Z,49.50
2019-03-28T17:04:38.150Z,49.93
2019-03-28T17:07:07.910Z,49.89
2019-03-28T17:09:39.149Z,49.85
2019-03-28T17:12:08.106Z,49.94
2019-03-28T17:14:37.279Z,50.01
2019-03-28T17:17:05.937Z,50.19
2019-03-28T17:19:34.574Z,50.18
2019-03-28T17:22:03.076Z,50.27
2019-03-28T17:24:31.851Z,50.17
2019-03-28T17:27:00.235Z,50.57
2019-03-28T17:29:28.904Z,50.79
2019-03-28T17:31:57.620Z,51.02
2019-03-28T17:34:34.644Z,51.05
2019-03-28T17:36:56.213Z,51.02
2019-03-28T17:39:26.331Z,51.15
2019-03-28T17:41:54.804Z,51.40
2019-03-28T17:44:23.209Z,51.37
2019-03-28T17:46:51.599Z,51.87
2019-03-28T17:49:20.821Z,51.07
2019-03-28T17:51:49.372Z,51.58
2019-03-28T17:54:17.769Z,51.66
2019-03-28T17:56:46.185Z,51.98
2019-03-28T17:59:14.550Z,52.65
2019-03-28T18:01:42.951Z,52.58
2019-03-28T18:04:22.323Z,52.54
2019-03-28T18:06:41.600Z,51.93
2019-03-28T18:09:10.101Z,51.39
2019-03-28T18:11:38.531Z,51.08
2019-03-28T18:14:07.009Z,51.49
2019-03-28T18:16:35.509Z,51.55
2019-03-28T18:19:04.054Z,51.63
2019-03-28T18:21:32.451Z,51.97
2019-03-28T18:24:00.836Z,51.81
2019-03-28T18:26:29.375Z,50.88
2019-03-28T18:28:57.771Z,51.68
2019-03-28T18:31:26.157Z,51.69
2019-03-28T18:33:54.855Z,51.58
2019-03-28T18:36:23.245Z,51.03
2019-03-28T18:38:52.553Z,51.31
2019-03-28T18:41:21.005Z,51.61
2019-03-28T18:43:49.811Z,52.04
2019-03-28T18:46:18.456Z,51.81
2019-03-28T18:48:46.877Z,52.11
2019-03-28T18:51:15.260Z,52.12
2019-03-28T18:53:43.721Z,51.96
2019-03-28T18:56:12.445Z,52.43
2019-03-28T18:58:41.175Z,52.65
2019-03-28T19:01:09.603Z,51.73
2019-03-28T19:03:38.044Z,52.03
2019-03-28T19:06:06.427Z,52.46
2019-03-28T19:08:34.811Z,52.73
2019-03-28T19:11:03.996Z,52.72
2019-03-28T19:13:32.679Z,52.98
2019-03-28T19:16:01.856Z,53.46
2019-03-28T19:18:30.297Z,53.64
2019-03-28T19:20:58.683Z,53.89
2019-03-28T19:23:27.092Z,54.01
2019-03-28T19:25:55.537Z,54.18
2019-03-28T19:28:29.062Z,54.49
2019-03-28T19:30:54.155Z,54.93
2019-03-28T19:33:23.012Z,55.46
2019-03-28T19:35:52.197Z,55.58
2019-03-28T19:38:20.647Z,55.30
2019-03-28T19:40:49.035Z,55.05
2019-03-28T19:43:20.927Z,55.60
2019-03-28T19:45:47.795Z,55.84
2019-03-28T19:48:16.181Z,55.68
2019-03-28T19:50:44.892Z,56.21
2019-03-28T19:53:13.308Z,56.69
2019-03-28T19:55:41.773Z,56.79
2019-03-28T19:58:13.387Z,56.97
2019-03-28T20:00:40.459Z,57.46
2019-03-28T20:03:09.019Z,57.87
2019-03-28T20:05:47.611Z,58.26
2019-03-28T20:08:15.528Z,58.52
2019-03-28T20:10:37.919Z,59.15
2019-03-28T20:13:06.394Z,59.05
2019-03-28T20:15:34.773Z,59.08
2019-03-28T20:18:03.170Z,59.29
2019-03-28T20:20:31.624Z,59.23
2019-03-28T20:23:00.257Z,59.85
2019-03-28T20:25:28.864Z,60.12
2019-03-28T20:27:57.713Z,60.06
2019-03-28T20:30:26.196Z,60.53
2019-03-28T20:32:54.779Z,61.06
2019-03-28T20:35:23.940Z,61.40
2019-03-28T20:37:52.339Z,61.40
2019-03-28T20:40:21.497Z,61.27
2019-03-28T20:42:50.015Z,61.29
2019-03-28T20:45:19.326Z,61.40
2019-03-28T20:47:48.457Z,61.26
2019-03-28T20:50:18.089Z,61.38
2019-03-28T20:52:46.576Z,61.30
2019-03-28T20:55:15.145Z,61.30
2019-03-28T20:57:43.866Z,61.11
2019-03-28T21:00:13.730Z,60.94
2019-03-28T21:02:42.117Z,61.06
2019-03-28T21:05:14.338Z,61.05
2019-03-28T21:07:41.999Z,61.41
2019-03-28T21:10:13.673Z,61.49
2019-03-28T21:12:42.079Z,61.83
2019-03-28T21:15:10.645Z,61.92
2019-03-28T21:17:39.294Z,62.15
2019-03-28T21:20:08.058Z,62.35
2019-03-28T21:22:36.562Z,62.63
2019-03-28T21:25:07.272Z,62.51
2019-03-28T21:27:35.716Z,63.16
2019-03-28T21:30:06.321Z,63.16
2019-03-28T21:32:34.788Z,63.85
2019-03-28T21:35:03.784Z,63.99
2019-03-28T21:37:32.193Z,64.11
2019-03-28T21:40:01.561Z,64.47
2019-03-28T21:42:30.155Z,64.47
2019-03-28T21:44:58.633Z,64.66
2019-03-28T21:47:27.010Z,64.77
2019-03-28T21:49:55.414Z,64.87
2019-03-28T21:52:23.898Z,65.01
2019-03-28T21:54:52.770Z,65.36
2019-03-28T21:57:21.167Z,65.34
2019-03-28T21:59:49.949Z,65.34
2019-03-28T22:02:18.331Z,65.36
2019-03-28T22:04:46.911Z,65.33
2019-03-28T22:07:15.684Z,65.45
2019-03-28T22:09:44.378Z,65.34
2019-03-28T22:12:12.763Z,65.34
2019-03-28T22:14:41.254Z,65.25
2019-03-28T22:17:10.020Z,65.25
2019-03-28T22:19:38.505Z,65.46
2019-03-28T22:22:07.188Z,65.48
2019-03-28T22:24:38.833Z,65.48
2019-03-28T22:27:05.706Z,65.46
2019-03-28T22:29:34.372Z,65.81
2019-03-28T22:32:02.758Z,65.60
2019-03-28T22:34:31.261Z,65.77
2019-03-28T22:37:03.459Z,66.25
2019-03-28T22:39:30.380Z,65.81
2019-03-28T22:41:58.780Z,66.17
2019-03-28T22:44:27.922Z,66.05
2019-03-28T22:46:56.639Z,66.39
2019-03-28T22:49:25.021Z,66.39
2019-03-28T22:51:53.482Z,66.92
2019-03-28T22:54:21.882Z,66.92
2019-03-28T22:56:50.538Z,66.92
2019-03-28T22:59:18.927Z,67.11
2019-03-28T23:01:47.410Z,67.17
2019-03-28T23:04:16.195Z,67.13
2019-03-28T23:06:44.874Z,67.34
2019-03-28T23:09:13.563Z,67.34
2019-03-28T23:11:42.516Z,67.54
2019-03-28T23:14:11.283Z,67.73
2019-03-28T23:16:39.738Z,68.07
2019-03-28T23:19:08.210Z,68.37
2019-03-28T23:21:36.589Z,68.37
2019-03-28T23:24:05.046Z,68.04
2019-03-28T23:26:34.838Z,68.42
2019-03-28T23:29:03.677Z,68.18
2019-03-28T23:31:32.048Z,68.18
2019-03-28T23:34:00.510Z,68.22
2019-03-28T23:36:29.334Z,68.38
2019-03-28T23:38:57.794Z,68.38
2019-03-28T23:41:26.191Z,68.38
2019-03-28T23:43:54.577Z,68.42
2019-03-28T23:46:22.972Z,68.36
2019-03-28T23:48:51.423Z,68.29
2019-03-28T23:51:20.198Z,68.20
2019-03-28T23:53:48.886Z,68.25
2019-03-28T23:56:17.385Z,68.52
2019-03-28T23:58:46.209Z,68.52
